sensor_id;sensor_type;location;lat;lon;timestamp;P1;durP1;ratioP1;P2;durP2;ratioP2
71003;SDS011;59025;42.050;-8.660;2022-12-07T00:01:48;33.08;;;16.33;;
71003;SDS011;59025;42.050;-8.660;2022-12-07T00:04:16;23.30;;;12.55;;
71003;SDS011;59025;42.050;-8.660;2022-12-07T00:06:45;32.07;;;14.37;;
71003;SDS011;59025;42.050;-8.660;2022-12-07T00:09:17;29.88;;;15.82;;
71003;SDS011;59025;42.050;-8.660;2022-12-07T00:11:45;35.67;;;18.25;;
71003;SDS011;59025;42.050;-8.660;2022-12-07T00:14:16;35.17;;;17.70;;
71003;SDS011;59025;42.050;-8.660;2022-12-07T00:16:44;25.95;;;14.85;;
71003;SDS011;59025;42.050;-8.660;2022-12-07T00:19:13;33.13;;;16.77;;
71003;SDS011;59025;42.050;-8.660;2022-12-07T00:21:41;35.20;;;17.08;;
71003;SDS011;59025;42.050;-8.660;2022-12-07T00:24:09;42.42;;;20.65;;
71003;SDS011;59025;42.050;-8.660;2022-12-07T00:26:38;58.78;;;21.75;;
71003;SDS011;59025;42.050;-8.660;2022-12-07T00:29:07;48.22;;;21.38;;
71003;SDS011;59025;42.050;-8.660;2022-12-07T00:31:40;46.73;;;20.57;;
71003;SDS011;59025;42.050;-8.660;2022-12-07T00:34:09;43.67;;;20.33;;
71003;SDS011;59025;42.050;-8.660;2022-12-07T00:36:41;40.15;;;21.50;;
71003;SDS011;59025;42.050;-8.660;2022-12-07T00:39:09;43.58;;;19.05;;
71003;SDS011;59025;42.050;-8.660;2022-12-07T00:41:36;42.80;;;20.75;;
71003;SDS011;59025;42.050;-8.660;2022-12-07T00:44:04;41.87;;;19.60;;
71003;SDS011;59025;42.050;-8.660;2022-12-07T00:46:32;30.95;;;17.42;;
71003;SDS011;59025;42.050;-8.660;2022-12-07T00:48:59;47.38;;;20.45;;
71003;SDS011;59025;42.050;-8.660;2022-12-07T00:51:28;57.15;;;23.27;;
71003;SDS011;59025;42.050;-8.660;2022-12-07T00:53:56;55.10;;;23.52;;
71003;SDS011;59025;42.050;-8.660;2022-12-07T00:56:24;84.77;;;23.77;;
71003;SDS011;59025;42.050;-8.660;2022-12-07T00:58:54;71.57;;;23.60;;
71003;SDS011;59025;42.050;-8.660;2022-12-07T01:01:22;51.00;;;24.08;;
71003;SDS011;59025;42.050;-8.660;2022-12-07T01:03:51;57.00;;;23.75;;
71003;SDS011;59025;42.050;-8.660;2022-12-07T01:06:21;56.42;;;23.60;;
71003;SDS011;59025;42.050;-8.660;2022-12-07T01:08:52;43.63;;;22.07;;
71003;SDS011;59025;42.050;-8.660;2022-12-07T01:11:20;39.85;;;20.30;;
71003;SDS011;59025;42.050;-8.660;2022-12-07T01:13:50;36.63;;;19.85;;
71003;SDS011;59025;42.050;-8.660;2022-12-07T01:16:18;80.35;;;19.85;;
71003;SDS011;59025;42.050;-8.660;2022-12-07T01:18:48;101.93;;;19.05;;
71003;SDS011;59025;42.050;-8.660;2022-12-07T01:21:18;91.47;;;19.03;;
71003;SDS011;59025;42.050;-8.660;2022-12-07T01:23:47;70.75;;;18.50;;
71003;SDS011;59025;42.050;-8.660;2022-12-07T01:26:17;87.32;;;18.90;;
71003;SDS011;59025;42.050;-8.660;2022-12-07T01:28:46;63.00;;;18.88;;
71003;SDS011;59025;42.050;-8.660;2022-12-07T01:31:14;57.15;;;18.20;;
71003;SDS011;59025;42.050;-8.660;2022-12-07T01:33:43;37.73;;;17.63;;
71003;SDS011;59025;42.050;-8.660;2022-12-07T01:36:13;42.63;;;19.48;;
71003;SDS011;59025;42.050;-8.660;2022-12-07T01:38:43;44.97;;;20.48;;
71003;SDS011;59025;42.050;-8.660;2022-12-07T01:41:11;49.97;;;21.45;;
71003;SDS011;59025;42.050;-8.660;2022-12-07T01:46:37;30.93;;;15.90;;
71003;SDS011;59025;42.050;-8.660;2022-12-07T01:49:05;47.75;;;18.35;;
71003;SDS011;59025;42.050;-8.660;2022-12-07T01:51:35;37.50;;;17.45;;
71003;SDS011;59025;42.050;-8.660;2022-12-07T01:54:06;28.73;;;14.73;;
71003;SDS011;59025;42.050;-8.660;2022-12-07T01:56:34;44.97;;;17.23;;
71003;SDS011;59025;42.050;-8.660;2022-12-07T01:59:02;48.13;;;16.97;;
71003;SDS011;59025;42.050;-8.660;2022-12-07T02:01:30;56.28;;;17.13;;
71003;SDS011;59025;42.050;-8.660;2022-12-07T02:03:59;76.95;;;18.77;;
71003;SDS011;59025;42.050;-8.660;2022-12-07T02:06:27;98.95;;;18.58;;
71003;SDS011;59025;42.050;-8.660;2022-12-07T02:08:55;79.25;;;17.65;;
71003;SDS011;59025;42.050;-8.660;2022-12-07T02:11:23;61.50;;;17.93;;
71003;SDS011;59025;42.050;-8.660;2022-12-07T02:13:50;52.65;;;18.10;;
71003;SDS011;59025;42.050;-8.660;2022-12-07T02:16:25;50.65;;;17.65;;
71003;SDS011;59025;42.050;-8.660;2022-12-07T02:19:14;51.65;;;17.17;;
71003;SDS011;59025;42.050;-8.660;2022-12-07T02:22:10;41.88;;;17.02;;
71003;SDS011;59025;42.050;-8.660;2022-12-07T02:24:54;24.83;;;14.47;;
71003;SDS011;59025;42.050;-8.660;2022-12-07T02:27:34;22.85;;;12.13;;
71003;SDS011;59025;42.050;-8.660;2022-12-07T02:30:12;23.48;;;13.10;;
71003;SDS011;59025;42.050;-8.660;2022-12-07T02:32:42;21.27;;;11.73;;
71003;SDS011;59025;42.050;-8.660;2022-12-07T02:35:17;21.63;;;11.40;;
71003;SDS011;59025;42.050;-8.660;2022-12-07T02:37:52;19.23;;;10.57;;
71003;SDS011;59025;42.050;-8.660;2022-12-07T02:40:28;18.40;;;10.75;;
71003;SDS011;59025;42.050;-8.660;2022-12-07T02:42:59;21.65;;;10.55;;
71003;SDS011;59025;42.050;-8.660;2022-12-07T02:45:33;19.45;;;8.95;;
71003;SDS011;59025;42.050;-8.660;2022-12-07T02:48:03;20.02;;;9.50;;
71003;SDS011;59025;42.050;-8.660;2022-12-07T02:50:33;21.67;;;10.40;;
71003;SDS011;59025;42.050;-8.660;2022-12-07T02:53:01;17.92;;;9.70;;
71003;SDS011;59025;42.050;-8.660;2022-12-07T02:55:30;18.38;;;11.10;;
71003;SDS011;59025;42.050;-8.660;2022-12-07T02:58:22;23.15;;;11.07;;
71003;SDS011;59025;42.050;-8.660;2022-12-07T03:01:08;29.02;;;13.27;;
71003;SDS011;59025;42.050;-8.660;2022-12-07T03:03:47;62.47;;;15.97;;
71003;SDS011;59025;42.050;-8.660;2022-12-07T03:06:25;64.60;;;12.05;;
71003;SDS011;59025;42.050;-8.660;2022-12-07T03:09:11;25.70;;;11.50;;
71003;SDS011;59025;42.050;-8.660;2022-12-07T03:11:47;24.02;;;11.60;;
71003;SDS011;59025;42.050;-8.660;2022-12-07T03:14:18;21.00;;;11.40;;
71003;SDS011;59025;42.050;-8.660;2022-12-07T03:16:55;21.87;;;11.00;;
71003;SDS011;59025;42.050;-8.660;2022-12-07T03:19:28;19.35;;;10.90;;
71003;SDS011;59025;42.050;-8.660;2022-12-07T03:22:01;19.80;;;11.48;;
71003;SDS011;59025;42.050;-8.660;2022-12-07T03:24:34;20.80;;;11.00;;
71003;SDS011;59025;42.050;-8.660;2022-12-07T03:27:05;21.05;;;10.40;;
71003;SDS011;59025;42.050;-8.660;2022-12-07T03:29:36;19.93;;;10.37;;
71003;SDS011;59025;42.050;-8.660;2022-12-07T03:32:11;16.52;;;9.23;;
71003;SDS011;59025;42.050;-8.660;2022-12-07T03:34:44;20.10;;;10.60;;
71003;SDS011;59025;42.050;-8.660;2022-12-07T03:37:17;17.77;;;8.75;;
71003;SDS011;59025;42.050;-8.660;2022-12-07T03:39:52;14.13;;;7.28;;
71003;SDS011;59025;42.050;-8.660;2022-12-07T03:42:25;16.50;;;8.40;;
71003;SDS011;59025;42.050;-8.660;2022-12-07T03:44:53;13.38;;;7.50;;
71003;SDS011;59025;42.050;-8.660;2022-12-07T03:47:24;14.02;;;6.78;;
71003;SDS011;59025;42.050;-8.660;2022-12-07T03:49:58;17.00;;;8.50;;
71003;SDS011;59025;42.050;-8.660;2022-12-07T03:52:31;15.18;;;7.28;;
71003;SDS011;59025;42.050;-8.660;2022-12-07T03:55:06;13.40;;;6.03;;
71003;SDS011;59025;42.050;-8.660;2022-12-07T03:57:37;14.00;;;6.07;;
71003;SDS011;59025;42.050;-8.660;2022-12-07T04:00:07;14.75;;;7.25;;
71003;SDS011;59025;42.050;-8.660;2022-12-07T04:02:38;17.33;;;7.50;;
71003;SDS011;59025;42.050;-8.660;2022-12-07T04:05:07;14.15;;;7.10;;
71003;SDS011;59025;42.050;-8.660;2022-12-07T04:07:35;14.83;;;7.33;;
71003;SDS011;59025;42.050;-8.660;2022-12-07T04:10:03;17.60;;;7.30;;
71003;SDS011;59025;42.050;-8.660;2022-12-07T04:12:31;17.33;;;8.32;;
71003;SDS011;59025;42.050;-8.660;2022-12-07T04:14:59;14.32;;;8.35;;
71003;SDS011;59025;42.050;-8.660;2022-12-07T04:17:26;16.48;;;7.70;;
71003;SDS011;59025;42.050;-8.660;2022-12-07T04:19:55;14.10;;;7.17;;
71003;SDS011;59025;42.050;-8.660;2022-12-07T04:22:23;16.65;;;7.97;;
71003;SDS011;59025;42.050;-8.660;2022-12-07T04:24:50;22.13;;;11.73;;
71003;SDS011;59025;42.050;-8.660;2022-12-07T04:27:18;25.13;;;13.10;;
71003;SDS011;59025;42.050;-8.660;2022-12-07T04:29:45;34.03;;;13.98;;
71003;SDS011;59025;42.050;-8.660;2022-12-07T04:32:13;20.67;;;11.47;;
71003;SDS011;59025;42.050;-8.660;2022-12-07T04:34:41;24.15;;;13.52;;
71003;SDS011;59025;42.050;-8.660;2022-12-07T04:37:10;25.27;;;14.07;;
71003;SDS011;59025;42.050;-8.660;2022-12-07T04:39:38;26.90;;;14.60;;
71003;SDS011;59025;42.050;-8.660;2022-12-07T04:42:06;26.30;;;14.15;;
71003;SDS011;59025;42.050;-8.660;2022-12-07T04:44:33;27.40;;;14.77;;
71003;SDS011;59025;42.050;-8.660;2022-12-07T04:47:01;27.20;;;14.50;;
71003;SDS011;59025;42.050;-8.660;2022-12-07T04:49:29;33.45;;;13.40;;
71003;SDS011;59025;42.050;-8.660;2022-12-07T04:51:56;34.25;;;14.90;;
71003;SDS011;59025;42.050;-8.660;2022-12-07T04:54:25;39.25;;;15.13;;
71003;SDS011;59025;42.050;-8.660;2022-12-07T04:56:53;36.33;;;13.53;;
71003;SDS011;59025;42.050;-8.660;2022-12-07T04:59:20;36.28;;;14.15;;
71003;SDS011;59025;42.050;-8.660;2022-12-07T05:01:48;38.08;;;13.82;;
71003;SDS011;59025;42.050;-8.660;2022-12-07T05:04:15;35.05;;;14.02;;
71003;SDS011;59025;42.050;-8.660;2022-12-07T05:06:43;40.00;;;12.35;;
71003;SDS011;59025;42.050;-8.660;2022-12-07T05:09:11;29.90;;;11.57;;
71003;SDS011;59025;42.050;-8.660;2022-12-07T05:11:40;46.22;;;11.70;;
71003;SDS011;59025;42.050;-8.660;2022-12-07T05:14:09;32.92;;;12.38;;
71003;SDS011;59025;42.050;-8.660;2022-12-07T05:16:39;35.72;;;12.50;;
71003;SDS011;59025;42.050;-8.660;2022-12-07T05:19:08;31.17;;;12.75;;
71003;SDS011;59025;42.050;-8.660;2022-12-07T05:21:37;23.20;;;12.13;;
71003;SDS011;59025;42.050;-8.660;2022-12-07T05:24:05;21.60;;;11.23;;
71003;SDS011;59025;42.050;-8.660;2022-12-07T05:26:34;24.10;;;12.05;;
71003;SDS011;59025;42.050;-8.660;2022-12-07T05:29:03;19.60;;;10.35;;
71003;SDS011;59025;42.050;-8.660;2022-12-07T05:31:31;19.98;;;10.48;;
71003;SDS011;59025;42.050;-8.660;2022-12-07T05:33:59;18.97;;;10.37;;
71003;SDS011;59025;42.050;-8.660;2022-12-07T05:36:26;19.42;;;10.60;;
71003;SDS011;59025;42.050;-8.660;2022-12-07T05:38:56;20.92;;;11.18;;
71003;SDS011;59025;42.050;-8.660;2022-12-07T05:41:24;19.38;;;11.15;;
71003;SDS011;59025;42.050;-8.660;2022-12-07T05:44:10;17.67;;;10.80;;
71003;SDS011;59025;42.050;-8.660;2022-12-07T05:46:37;20.17;;;10.40;;
71003;SDS011;59025;42.050;-8.660;2022-12-07T05:49:05;26.42;;;11.95;;
71003;SDS011;59025;42.050;-8.660;2022-12-07T05:51:32;17.50;;;8.93;;
71003;SDS011;59025;42.050;-8.660;2022-12-07T05:54:00;15.27;;;8.23;;
71003;SDS011;59025;42.050;-8.660;2022-12-07T05:56:28;20.83;;;10.85;;
71003;SDS011;59025;42.050;-8.660;2022-12-07T05:58:56;17.93;;;8.80;;
71003;SDS011;59025;42.050;-8.660;2022-12-07T06:01:42;19.70;;;11.10;;
71003;SDS011;59025;42.050;-8.660;2022-12-07T06:04:09;23.42;;;12.25;;
71003;SDS011;59025;42.050;-8.660;2022-12-07T06:06:37;19.08;;;11.75;;
71003;SDS011;59025;42.050;-8.660;2022-12-07T06:09:05;22.95;;;9.57;;
71003;SDS011;59025;42.050;-8.660;2022-12-07T06:11:32;29.23;;;9.97;;
71003;SDS011;59025;42.050;-8.660;2022-12-07T06:14:17;27.00;;;9.45;;
71003;SDS011;59025;42.050;-8.660;2022-12-07T06:16:46;22.80;;;9.43;;
71003;SDS011;59025;42.050;-8.660;2022-12-07T06:19:13;34.42;;;8.93;;
71003;SDS011;59025;42.050;-8.660;2022-12-07T06:21:41;34.33;;;8.73;;
71003;SDS011;59025;42.050;-8.660;2022-12-07T06:24:09;16.43;;;6.40;;
71003;SDS011;59025;42.050;-8.660;2022-12-07T06:26:37;20.35;;;7.57;;
71003;SDS011;59025;42.050;-8.660;2022-12-07T06:29:05;14.60;;;5.85;;
71003;SDS011;59025;42.050;-8.660;2022-12-07T06:31:33;14.23;;;5.38;;
71003;SDS011;59025;42.050;-8.660;2022-12-07T06:34:04;10.77;;;5.35;;
71003;SDS011;59025;42.050;-8.660;2022-12-07T06:36:33;12.20;;;5.73;;
71003;SDS011;59025;42.050;-8.660;2022-12-07T06:39:01;13.90;;;7.25;;
71003;SDS011;59025;42.050;-8.660;2022-12-07T06:41:29;6.85;;;3.95;;
71003;SDS011;59025;42.050;-8.660;2022-12-07T06:43:56;12.77;;;5.65;;
71003;SDS011;59025;42.050;-8.660;2022-12-07T06:46:25;13.15;;;5.95;;
71003;SDS011;59025;42.050;-8.660;2022-12-07T06:48:53;28.33;;;8.20;;
71003;SDS011;59025;42.050;-8.660;2022-12-07T06:51:22;13.93;;;5.22;;
71003;SDS011;59025;42.050;-8.660;2022-12-07T06:53:50;18.10;;;6.32;;
71003;SDS011;59025;42.050;-8.660;2022-12-07T06:56:19;33.92;;;8.85;;
71003;SDS011;59025;42.050;-8.660;2022-12-07T06:58:48;45.88;;;8.55;;
71003;SDS011;59025;42.050;-8.660;2022-12-07T07:01:16;24.40;;;8.30;;
71003;SDS011;59025;42.050;-8.660;2022-12-07T07:03:45;18.95;;;7.22;;
71003;SDS011;59025;42.050;-8.660;2022-12-07T07:06:13;19.88;;;7.10;;
71003;SDS011;59025;42.050;-8.660;2022-12-07T07:08:42;31.55;;;7.47;;
71003;SDS011;59025;42.050;-8.660;2022-12-07T07:11:10;17.35;;;5.40;;
71003;SDS011;59025;42.050;-8.660;2022-12-07T07:13:39;21.00;;;5.23;;
71003;SDS011;59025;42.050;-8.660;2022-12-07T07:16:07;15.90;;;5.60;;
71003;SDS011;59025;42.050;-8.660;2022-12-07T07:18:35;33.97;;;6.93;;
71003;SDS011;59025;42.050;-8.660;2022-12-07T07:21:04;34.78;;;7.32;;
71003;SDS011;59025;42.050;-8.660;2022-12-07T07:23:31;19.17;;;6.53;;
71003;SDS011;59025;42.050;-8.660;2022-12-07T07:26:01;23.23;;;6.40;;
71003;SDS011;59025;42.050;-8.660;2022-12-07T07:28:28;43.72;;;12.13;;
71003;SDS011;59025;42.050;-8.660;2022-12-07T07:30:56;22.80;;;7.43;;
71003;SDS011;59025;42.050;-8.660;2022-12-07T07:33:23;21.23;;;6.45;;
71003;SDS011;59025;42.050;-8.660;2022-12-07T07:35:51;18.52;;;6.10;;
71003;SDS011;59025;42.050;-8.660;2022-12-07T07:38:19;23.23;;;5.80;;
71003;SDS011;59025;42.050;-8.660;2022-12-07T07:40:47;28.20;;;6.63;;
71003;SDS011;59025;42.050;-8.660;2022-12-07T07:43:18;24.08;;;6.03;;
71003;SDS011;59025;42.050;-8.660;2022-12-07T07:45:47;13.80;;;5.30;;
71003;SDS011;59025;42.050;-8.660;2022-12-07T07:48:16;30.65;;;6.38;;
71003;SDS011;59025;42.050;-8.660;2022-12-07T07:50:44;20.93;;;6.60;;
71003;SDS011;59025;42.050;-8.660;2022-12-07T07:53:13;14.52;;;6.03;;
71003;SDS011;59025;42.050;-8.660;2022-12-07T07:55:42;18.92;;;6.65;;
71003;SDS011;59025;42.050;-8.660;2022-12-07T07:58:21;14.27;;;6.65;;
71003;SDS011;59025;42.050;-8.660;2022-12-07T08:00:50;19.88;;;7.00;;
71003;SDS011;59025;42.050;-8.660;2022-12-07T08:03:32;19.10;;;7.23;;
71003;SDS011;59025;42.050;-8.660;2022-12-07T08:06:03;18.58;;;7.32;;
71003;SDS011;59025;42.050;-8.660;2022-12-07T08:08:32;12.75;;;6.68;;
71003;SDS011;59025;42.050;-8.660;2022-12-07T08:11:04;15.05;;;7.47;;
71003;SDS011;59025;42.050;-8.660;2022-12-07T08:13:36;10.52;;;5.25;;
71003;SDS011;59025;42.050;-8.660;2022-12-07T08:16:17;10.90;;;4.27;;
71003;SDS011;59025;42.050;-8.660;2022-12-07T08:18:45;12.25;;;5.40;;
71003;SDS011;59025;42.050;-8.660;2022-12-07T08:21:20;5.80;;;3.05;;
71003;SDS011;59025;42.050;-8.660;2022-12-07T08:23:47;14.10;;;4.35;;
71003;SDS011;59025;42.050;-8.660;2022-12-07T08:26:15;15.48;;;6.22;;
71003;SDS011;59025;42.050;-8.660;2022-12-07T08:28:45;14.33;;;6.03;;
71003;SDS011;59025;42.050;-8.660;2022-12-07T08:31:13;7.88;;;3.35;;
71003;SDS011;59025;42.050;-8.660;2022-12-07T08:33:44;13.30;;;5.43;;
71003;SDS011;59025;42.050;-8.660;2022-12-07T08:36:13;10.57;;;4.70;;
71003;SDS011;59025;42.050;-8.660;2022-12-07T08:38:41;15.02;;;5.82;;
71003;SDS011;59025;42.050;-8.660;2022-12-07T08:41:08;16.93;;;5.90;;
71003;SDS011;59025;42.050;-8.660;2022-12-07T08:43:36;15.50;;;5.03;;
71003;SDS011;59025;42.050;-8.660;2022-12-07T08:46:08;15.73;;;6.47;;
71003;SDS011;59025;42.050;-8.660;2022-12-07T08:48:40;10.75;;;4.25;;
71003;SDS011;59025;42.050;-8.660;2022-12-07T08:51:13;17.92;;;6.00;;
71003;SDS011;59025;42.050;-8.660;2022-12-07T08:53:41;11.63;;;4.97;;
71003;SDS011;59025;42.050;-8.660;2022-12-07T08:56:10;17.98;;;5.32;;
71003;SDS011;59025;42.050;-8.660;2022-12-07T08:58:38;15.13;;;6.57;;
71003;SDS011;59025;42.050;-8.660;2022-12-07T09:01:07;12.18;;;5.05;;
71003;SDS011;59025;42.050;-8.660;2022-12-07T09:03:35;12.18;;;6.13;;
71003;SDS011;59025;42.050;-8.660;2022-12-07T09:06:03;14.90;;;6.20;;
71003;SDS011;59025;42.050;-8.660;2022-12-07T09:08:32;12.88;;;5.57;;
71003;SDS011;59025;42.050;-8.660;2022-12-07T09:11:03;12.52;;;5.28;;
71003;SDS011;59025;42.050;-8.660;2022-12-07T09:13:30;14.05;;;6.53;;
71003;SDS011;59025;42.050;-8.660;2022-12-07T09:15:58;12.05;;;4.88;;
71003;SDS011;59025;42.050;-8.660;2022-12-07T09:18:27;10.93;;;4.17;;
71003;SDS011;59025;42.050;-8.660;2022-12-07T09:20:55;15.93;;;6.50;;
71003;SDS011;59025;42.050;-8.660;2022-12-07T09:23:23;16.40;;;6.90;;
71003;SDS011;59025;42.050;-8.660;2022-12-07T09:25:51;22.10;;;8.07;;
71003;SDS011;59025;42.050;-8.660;2022-12-07T09:28:19;21.52;;;8.77;;
71003;SDS011;59025;42.050;-8.660;2022-12-07T09:30:46;33.73;;;9.00;;
71003;SDS011;59025;42.050;-8.660;2022-12-07T09:33:14;26.30;;;8.57;;
71003;SDS011;59025;42.050;-8.660;2022-12-07T09:35:45;37.90;;;9.82;;
71003;SDS011;59025;42.050;-8.660;2022-12-07T09:38:13;37.53;;;10.20;;
71003;SDS011;59025;42.050;-8.660;2022-12-07T09:40:41;39.28;;;9.93;;
71003;SDS011;59025;42.050;-8.660;2022-12-07T09:43:12;32.30;;;10.67;;
71003;SDS011;59025;42.050;-8.660;2022-12-07T09:45:41;31.13;;;8.93;;
71003;SDS011;59025;42.050;-8.660;2022-12-07T09:48:13;29.25;;;8.68;;
71003;SDS011;59025;42.050;-8.660;2022-12-07T09:50:46;18.42;;;6.85;;
71003;SDS011;59025;42.050;-8.660;2022-12-07T09:53:15;24.08;;;7.68;;
71003;SDS011;59025;42.050;-8.660;2022-12-07T09:55:49;27.17;;;9.53;;
71003;SDS011;59025;42.050;-8.660;2022-12-07T09:58:19;28.95;;;8.70;;
71003;SDS011;59025;42.050;-8.660;2022-12-07T10:00:49;20.73;;;8.10;;
71003;SDS011;59025;42.050;-8.660;2022-12-07T10:03:19;17.95;;;8.98;;
71003;SDS011;59025;42.050;-8.660;2022-12-07T10:05:49;14.43;;;8.80;;
71003;SDS011;59025;42.050;-8.660;2022-12-07T10:08:18;22.70;;;10.07;;
71003;SDS011;59025;42.050;-8.660;2022-12-07T10:10:48;17.27;;;9.90;;
71003;SDS011;59025;42.050;-8.660;2022-12-07T10:13:19;25.80;;;13.32;;
71003;SDS011;59025;42.050;-8.660;2022-12-07T10:15:49;16.45;;;7.43;;
71003;SDS011;59025;42.050;-8.660;2022-12-07T10:18:19;20.42;;;9.02;;
71003;SDS011;59025;42.050;-8.660;2022-12-07T12:59:26;14.55;;;6.75;;
71003;SDS011;59025;42.050;-8.660;2022-12-07T13:02:00;13.43;;;6.80;;
71003;SDS011;59025;42.050;-8.660;2022-12-07T13:10:38;14.40;;;7.28;;
71003;SDS011;59025;42.050;-8.660;2022-12-07T13:25:09;14.23;;;6.68;;
71003;SDS011;59025;42.050;-8.660;2022-12-07T13:27:39;14.23;;;6.90;;
71003;SDS011;59025;42.050;-8.660;2022-12-07T13:30:14;11.77;;;5.30;;
71003;SDS011;59025;42.050;-8.660;2022-12-07T13:32:49;9.85;;;5.10;;
71003;SDS011;59025;42.050;-8.660;2022-12-07T13:35:32;12.73;;;6.40;;
71003;SDS011;59025;42.050;-8.660;2022-12-07T13:38:05;16.80;;;7.43;;
71003;SDS011;59025;42.050;-8.660;2022-12-07T13:40:42;15.85;;;8.25;;
71003;SDS011;59025;42.050;-8.660;2022-12-07T13:43:25;16.17;;;7.65;;
71003;SDS011;59025;42.050;-8.660;2022-12-07T13:45:55;15.98;;;7.78;;
71003;SDS011;59025;42.050;-8.660;2022-12-07T13:48:25;16.80;;;7.80;;
71003;SDS011;59025;42.050;-8.660;2022-12-07T13:50:57;14.32;;;7.55;;
71003;SDS011;59025;42.050;-8.660;2022-12-07T13:53:30;16.02;;;8.18;;
71003;SDS011;59025;42.050;-8.660;2022-12-07T13:55:58;17.63;;;7.93;;
71003;SDS011;59025;42.050;-8.660;2022-12-07T13:58:27;17.40;;;8.73;;
71003;SDS011;59025;42.050;-8.660;2022-12-07T14:00:58;17.87;;;8.60;;
71003;SDS011;59025;42.050;-8.660;2022-12-07T14:03:28;16.45;;;8.88;;
71003;SDS011;59025;42.050;-8.660;2022-12-07T14:06:10;20.83;;;8.75;;
71003;SDS011;59025;42.050;-8.660;2022-12-07T14:08:46;18.45;;;8.20;;
71003;SDS011;59025;42.050;-8.660;2022-12-07T14:11:16;17.20;;;8.50;;
71003;SDS011;59025;42.050;-8.660;2022-12-07T14:16:32;16.95;;;7.55;;
71003;SDS011;59025;42.050;-8.660;2022-12-07T14:19:03;16.88;;;7.75;;
71003;SDS011;59025;42.050;-8.660;2022-12-07T14:21:32;14.75;;;7.68;;
71003;SDS011;59025;42.050;-8.660;2022-12-07T14:24:14;16.80;;;7.95;;
71003;SDS011;59025;42.050;-8.660;2022-12-07T14:26:44;17.63;;;7.90;;
71003;SDS011;59025;42.050;-8.660;2022-12-07T14:29:19;17.25;;;7.95;;
71003;SDS011;59025;42.050;-8.660;2022-12-07T14:32:20;14.18;;;7.88;;
71003;SDS011;59025;42.050;-8.660;2022-12-07T14:34:54;15.98;;;7.32;;
71003;SDS011;59025;42.050;-8.660;2022-12-07T14:37:23;17.02;;;8.18;;
71003;SDS011;59025;42.050;-8.660;2022-12-07T14:39:53;16.37;;;7.60;;
71003;SDS011;59025;42.050;-8.660;2022-12-07T14:42:23;17.83;;;8.93;;
71003;SDS011;59025;42.050;-8.660;2022-12-07T14:44:56;15.88;;;8.40;;
71003;SDS011;59025;42.050;-8.660;2022-12-07T14:47:25;16.65;;;8.38;;
71003;SDS011;59025;42.050;-8.660;2022-12-07T14:49:53;17.25;;;8.50;;
71003;SDS011;59025;42.050;-8.660;2022-12-07T14:52:21;18.83;;;9.33;;
71003;SDS011;59025;42.050;-8.660;2022-12-07T14:54:55;17.33;;;9.07;;
71003;SDS011;59025;42.050;-8.660;2022-12-07T14:57:23;17.50;;;9.50;;
71003;SDS011;59025;42.050;-8.660;2022-12-07T14:59:50;18.83;;;9.40;;
71003;SDS011;59025;42.050;-8.660;2022-12-07T15:02:18;24.10;;;11.23;;
71003;SDS011;59025;42.050;-8.660;2022-12-07T15:04:45;22.80;;;11.97;;
71003;SDS011;59025;42.050;-8.660;2022-12-07T15:07:15;27.23;;;12.35;;
71003;SDS011;59025;42.050;-8.660;2022-12-07T15:09:46;22.70;;;12.20;;
71003;SDS011;59025;42.050;-8.660;2022-12-07T15:12:16;22.67;;;11.95;;
71003;SDS011;59025;42.050;-8.660;2022-12-07T15:14:43;21.63;;;11.05;;
71003;SDS011;59025;42.050;-8.660;2022-12-07T15:17:11;23.77;;;12.23;;
71003;SDS011;59025;42.050;-8.660;2022-12-07T15:19:40;20.90;;;10.95;;
71003;SDS011;59025;42.050;-8.660;2022-12-07T15:22:08;20.23;;;10.07;;
71003;SDS011;59025;42.050;-8.660;2022-12-07T15:24:36;22.67;;;11.95;;
71003;SDS011;59025;42.050;-8.660;2022-12-07T15:27:04;17.95;;;10.20;;
71003;SDS011;59025;42.050;-8.660;2022-12-07T15:29:33;22.30;;;16.30;;
71003;SDS011;59025;42.050;-8.660;2022-12-07T15:32:01;26.50;;;13.02;;
71003;SDS011;59025;42.050;-8.660;2022-12-07T15:34:29;22.27;;;12.02;;
71003;SDS011;59025;42.050;-8.660;2022-12-07T15:36:57;22.20;;;11.82;;
71003;SDS011;59025;42.050;-8.660;2022-12-07T15:39:25;27.70;;;13.60;;
71003;SDS011;59025;42.050;-8.660;2022-12-07T15:41:52;22.20;;;11.10;;
71003;SDS011;59025;42.050;-8.660;2022-12-07T15:44:20;26.42;;;12.90;;
71003;SDS011;59025;42.050;-8.660;2022-12-07T15:47:06;28.73;;;15.30;;
71003;SDS011;59025;42.050;-8.660;2022-12-07T15:49:34;31.92;;;16.05;;
71003;SDS011;59025;42.050;-8.660;2022-12-07T15:52:02;33.13;;;17.80;;
71003;SDS011;59025;42.050;-8.660;2022-12-07T15:54:30;34.53;;;17.77;;
71003;SDS011;59025;42.050;-8.660;2022-12-07T15:56:58;30.38;;;15.73;;
71003;SDS011;59025;42.050;-8.660;2022-12-07T15:59:26;31.75;;;13.88;;
71003;SDS011;59025;42.050;-8.660;2022-12-07T16:01:55;27.48;;;14.07;;
71003;SDS011;59025;42.050;-8.660;2022-12-07T16:04:24;28.17;;;13.82;;
71003;SDS011;59025;42.050;-8.660;2022-12-07T16:06:54;20.77;;;11.70;;
71003;SDS011;59025;42.050;-8.660;2022-12-07T16:09:21;20.23;;;9.82;;
71003;SDS011;59025;42.050;-8.660;2022-12-07T16:11:49;19.40;;;9.95;;
71003;SDS011;59025;42.050;-8.660;2022-12-07T16:14:17;17.70;;;9.20;;
71003;SDS011;59025;42.050;-8.660;2022-12-07T16:16:45;15.13;;;8.48;;
71003;SDS011;59025;42.050;-8.660;2022-12-07T16:19:13;17.00;;;8.40;;
71003;SDS011;59025;42.050;-8.660;2022-12-07T16:21:42;14.38;;;7.75;;
71003;SDS011;59025;42.050;-8.660;2022-12-07T16:24:09;14.57;;;8.13;;
71003;SDS011;59025;42.050;-8.660;2022-12-07T16:26:41;16.35;;;7.95;;
71003;SDS011;59025;42.050;-8.660;2022-12-07T16:29:09;16.05;;;7.78;;
71003;SDS011;59025;42.050;-8.660;2022-12-07T16:31:38;14.83;;;7.77;;
71003;SDS011;59025;42.050;-8.660;2022-12-07T16:34:06;16.02;;;8.02;;
71003;SDS011;59025;42.050;-8.660;2022-12-07T16:36:35;15.48;;;7.78;;
71003;SDS011;59025;42.050;-8.660;2022-12-07T16:39:05;17.20;;;8.10;;
71003;SDS011;59025;42.050;-8.660;2022-12-07T16:41:32;20.60;;;12.30;;
71003;SDS011;59025;42.050;-8.660;2022-12-07T16:44:01;15.57;;;8.37;;
71003;SDS011;59025;42.050;-8.660;2022-12-07T16:46:31;18.90;;;9.10;;
71003;SDS011;59025;42.050;-8.660;2022-12-07T16:48:59;19.05;;;9.40;;
71003;SDS011;59025;42.050;-8.660;2022-12-07T16:51:27;14.10;;;8.15;;
71003;SDS011;59025;42.050;-8.660;2022-12-07T16:53:54;15.00;;;8.02;;
71003;SDS011;59025;42.050;-8.660;2022-12-07T16:56:26;16.83;;;8.83;;
71003;SDS011;59025;42.050;-8.660;2022-12-07T16:58:54;15.05;;;7.30;;
71003;SDS011;59025;42.050;-8.660;2022-12-07T17:01:24;16.85;;;8.63;;
71003;SDS011;59025;42.050;-8.660;2022-12-07T17:03:55;18.90;;;9.25;;
71003;SDS011;59025;42.050;-8.660;2022-12-07T17:06:24;20.63;;;10.23;;
71003;SDS011;59025;42.050;-8.660;2022-12-07T17:08:55;18.20;;;8.83;;
71003;SDS011;59025;42.050;-8.660;2022-12-07T17:11:24;17.50;;;8.75;;
71003;SDS011;59025;42.050;-8.660;2022-12-07T17:13:54;15.93;;;8.43;;
71003;SDS011;59025;42.050;-8.660;2022-12-07T17:16:39;18.75;;;8.55;;
71003;SDS011;59025;42.050;-8.660;2022-12-07T17:19:07;17.83;;;8.75;;
71003;SDS011;59025;42.050;-8.660;2022-12-07T17:21:36;18.20;;;8.47;;
71003;SDS011;59025;42.050;-8.660;2022-12-07T17:24:05;19.10;;;8.57;;
71003;SDS011;59025;42.050;-8.660;2022-12-07T17:26:37;19.98;;;9.23;;
71003;SDS011;59025;42.050;-8.660;2022-12-07T17:29:06;18.20;;;8.40;;
71003;SDS011;59025;42.050;-8.660;2022-12-07T17:31:34;24.50;;;10.70;;
71003;SDS011;59025;42.050;-8.660;2022-12-07T17:34:03;21.20;;;9.07;;
71003;SDS011;59025;42.050;-8.660;2022-12-07T17:36:32;19.80;;;10.13;;